Edroy, TX

5:44 PM CST on December 27, 2014 (GMT -0600)
Harlan's Annaville Weather Station | Change Station
CLOSE
Current Station
Personal Weather Station
Location: Corpus Christi, TX
Elevation: 75 ft
Nearby Weather Stations

Elev 75 ft 27.85 °N, 97.60 °W | Updated 10 seconds ago

Overcast
Overcast
55.9 °F
Feels Like 55.9 °F
N
0.0
Wind Variable Wind from North
Gusts 0.0 mph

Today
High -- | Low -- °F
--% Chance of Precip.
Yesterday
High -- | Low -- °F
Precip. -- in
7:20 AM 5:42 PM
Waxing Crescent, 41% visible
Pressure 30.05 in
Visibility 10.0 miles
Clouds Overcast 1500 ft
Dew Point 48 °F
Humidity 76%
Rainfall 0.00 in
Snow Depth Not available.
UV 0 out of 12
Pollen 7.30 out of 12
Air Quality Not available.
Flu Activity Not available.
METAR KCRP 272251Z 35020G25KT 10SM OVC015 14/09 A3005 RMK AO2 PK WND 01027/2243 PRESRR SLP174 T01390089

More Conditions Fewer Conditions

Pressure 30.05 in
Visibility 10.0 miles
Clouds Overcast 1500 ft
Dew Point 48 °F
Humidity 76%
Rainfall 0.00 in
Snow Depth Not available.
UV 0 out of 12
Pollen 7.30 out of 12
Air Quality Not available.
Flu Activity Not available.
METAR KCRP 272251Z 35020G25KT 10SM OVC015 14/09 A3005 RMK AO2 PK WND 01027/2243 PRESRR SLP174 T01390089

More Conditions Fewer Conditions

Nowcast | as of 3:55 PM CST on December 27, 2014

Through 6 PM CST...isolated showers will continue to affect portions of south Texas and the middle Texas coastal waters. Rainfall should generally be light to moderate with rainfall amounts less than a tenth of an inch an hour.

×

10-Day Weather Forecast

Almanac

Astronomy

Dec. 27, 2014 Rise Set
Actual Time
Civil Twilight
Nautical Twilight
Astronomical Twilight
Moon
Length of Visible Light
Length of Day
Tomorrow will be .
, % of the Moon is Illuminated

Today's Extremes

State Highs State Lows

Community

WunderPhotos

Upload Photos

1,781,110 photos uploaded!

WunderBlogs® & News

Nearby

Air Quality

  Air Quality AQ Index Pollutant
Not available.

Snow Depth

Station Depth Elevation

Earthquake Activity

City Distance Mag. Time & Date
Minimum magnitude displayed is 2.5.

Coastal Water Temperatures

Place Temperature

Nearby Weather Stations